Time;durP1;ratioP1;P1;durP2;ratioP2;P2;SDS_P1;SDS_P2;PMS_P1;PMS_P2;Temp;Humidity;BMP_temperature;BMP_pressure;BME280_temperature;BME280_humidity;BME280_pressure;Samples;Min_cycle;Max_cycle;Signal;HPM_P1;HPM_P2
2024/02/07 00:00:45;;;;;;;;;;;;;;;19.03;47.72;99288.81;2069556;28;2055;-80
2024/02/07 00:01:48;;;;;;;;;;;;;;;19.04;47.69;99296.00;2072017;28;1895;-80
2024/02/07 00:02:50;;;;;;;;;;;;;;;19.02;47.59;99292.38;2071229;28;2196;-80
2024/02/07 00:03:51;;;;;;;;;;;;;;;19.03;47.78;99282.34;2071839;28;1615;-79
2024/02/07 00:04:53;;;;;;;;;;;;;;;19.03;47.72;99282.34;2069265;28;2164;-80
2024/02/07 00:05:54;;;;;;;;;;;;;;;19.02;47.68;99280.88;2070110;28;1895;-80
2024/02/07 00:06:56;;;;;;;;;;;;;;;19.02;47.82;99275.16;2067733;28;2212;-81
2024/02/07 00:07:57;;;;;;;;;;;;;;;19.02;47.77;99275.16;2071631;28;2600;-80
2024/02/07 00:08:59;;;;;;;;;;;;;;;19.02;47.69;99270.13;2068511;28;2294;-80
2024/02/07 00:10:00;;;;;;;;;;;;;;;19.02;47.71;99263.69;2067535;28;1632;-79
2024/02/07 00:11:03;;;;;;;;;;;;;;;19.01;47.83;99273.69;2068824;28;2033;-80
2024/02/07 00:12:04;;;;;;;;;;;;;;;19.01;47.72;99265.81;2071028;28;1613;-80
2024/02/07 00:13:06;;;;;;;;;;;;;;;19.01;47.80;99265.81;2071061;28;2049;-80
2024/02/07 00:14:07;;;;;;;;;;;;;;;19.01;47.74;99259.34;2069321;28;1870;-80
2024/02/07 00:15:09;;;;;;;;;;;;;;;19.01;47.80;99256.47;2067993;28;2267;-80
2024/02/07 00:16:10;;;;;;;;;;;;;;;19.01;47.75;99250.72;2070983;28;1934;-79
2024/02/07 00:17:12;;;;;;;;;;;;;;;19.00;47.80;99243.53;2066005;28;2187;-78
2024/02/07 00:18:13;;;;;;;;;;;;;;;18.99;47.86;99254.28;2068669;28;1918;-80
2024/02/07 00:19:15;;;;;;;;;;;;;;;18.98;47.82;99241.34;2070121;28;2215;-81
2024/02/07 00:20:16;;;;;;;;;;;;;;;18.99;47.80;99236.34;2069587;28;2252;-80
2024/02/07 00:21:18;;;;;;;;;;;;;;;18.99;47.78;99242.09;2069478;28;1611;-81
2024/02/07 00:22:19;;;;;;;;;;;;;;;19.00;47.70;99232.06;2071969;28;1579;-80
2024/02/07 00:23:21;;;;;;;;;;;;;;;18.99;47.74;99247.84;2067661;28;1806;-80
2024/02/07 00:24:22;;;;;;;;;;;;;;;18.99;47.79;99236.34;2067570;28;1599;-80
2024/02/07 00:25:23;;;;;;;;;;;;;;;18.99;47.65;99224.88;2069375;28;1956;-81
2024/02/07 00:26:25;;;;;;;;;;;;;;;18.98;47.75;99235.59;2068908;28;1624;-81
2024/02/07 00:27:27;;;;;;;;;;;;;;;18.99;47.73;99230.63;2070643;28;2114;-80
2024/02/07 00:28:28;;;;;;;;;;;;;;;18.98;47.74;99229.88;2069305;28;1608;-80
2024/02/07 00:29:29;;;;;;;;;;;;;;;18.98;47.69;99227.00;2069666;28;2149;-80
2024/02/07 00:30:31;;;;;;;;;;;;;;;18.98;47.71;99229.16;2069378;28;2250;-80
2024/02/07 00:31:40;;;;;;;;;;;;;;;18.99;47.69;99227.75;2069771;28;2326;-80
2024/02/07 00:32:41;;;;;;;;;;;;;;;18.98;47.76;99206.19;2070743;28;1591;-80
2024/02/07 00:33:43;;;;;;;;;;;;;;;18.97;47.86;99225.56;2069866;28;1738;-81
2024/02/07 00:34:44;;;;;;;;;;;;;;;18.97;47.86;99221.97;2069487;28;1830;-80
2024/02/07 00:35:46;;;;;;;;;;;;;;;18.97;47.68;99213.34;2068819;28;1620;-81
2024/02/07 00:36:47;;;;;;;;;;;;;;;18.96;47.69;99220.47;2069289;28;2170;-80
2024/02/07 00:37:49;;;;;;;;;;;;;;;18.96;47.75;99211.88;2069922;28;2267;-80
2024/02/07 00:38:50;;;;;;;;;;;;;;;18.96;47.72;99215.47;2070887;28;2024;-80
2024/02/07 00:39:52;;;;;;;;;;;;;;;18.96;47.72;99209.00;2070957;28;1605;-80
2024/02/07 00:40:54;;;;;;;;;;;;;;;18.96;47.68;99214.75;2068926;28;1625;-80
2024/02/07 00:41:55;;;;;;;;;;;;;;;18.95;47.87;99219.03;2071099;28;1695;-80
2024/02/07 00:42:57;;;;;;;;;;;;;;;18.95;47.69;99213.31;2069007;28;2251;-80
2024/02/07 00:43:59;;;;;;;;;;;;;;;18.94;47.70;99206.81;2068505;28;1888;-81
2024/02/07 00:45:00;;;;;;;;;;;;;;;18.95;47.76;99196.09;2069592;28;1556;-80
2024/02/07 00:46:03;;;;;;;;;;;;;;;18.95;47.60;99190.34;2067594;28;1706;-80
2024/02/07 00:47:04;;;;;;;;;;;;;;;18.95;47.76;99190.34;2068729;28;2234;-79
2024/02/07 00:48:05;;;;;;;;;;;;;;;18.95;47.64;99204.69;2071363;28;1572;-80
2024/02/07 00:49:12;;;;;;;;;;;;;;;18.95;47.70;99198.97;2066268;28;2457;-80
2024/02/07 00:50:13;;;;;;;;;;;;;;;18.96;47.76;99203.28;2071027;28;2155;-80
2024/02/07 00:51:15;;;;;;;;;;;;;;;18.95;47.75;99201.81;2068983;28;1656;-80
2024/02/07 00:52:16;;;;;;;;;;;;;;;18.95;47.78;99201.81;2069987;28;1888;-80
2024/02/07 00:53:18;;;;;;;;;;;;;;;18.94;47.55;99194.63;2066084;28;1632;-80
2024/02/07 00:54:21;;;;;;;;;;;;;;;18.94;47.76;99200.34;2069863;28;1583;-80
2024/02/07 00:55:22;;;;;;;;;;;;;;;18.94;47.74;99189.59;2067632;28;1867;-79
2024/02/07 00:56:24;;;;;;;;;;;;;;;18.94;47.72;99183.16;2070947;28;1883;-80
2024/02/07 00:57:25;;;;;;;;;;;;;;;18.95;47.70;99181.75;2067842;28;2021;-80
2024/02/07 00:58:26;;;;;;;;;;;;;;;18.93;47.63;99187.44;2070848;28;1641;-80
2024/02/07 00:59:28;;;;;;;;;;;;;;;18.93;47.72;99188.16;2068747;28;2243;-80
2024/02/07 01:00:29;;;;;;;;;;;;;;;18.93;47.76;99176.69;2071170;28;1976;-80
2024/02/07 01:01:31;;;;;;;;;;;;;;;18.92;47.70;99169.50;2066672;28;2208;-79
2024/02/07 01:02:32;;;;;;;;;;;;;;;18.92;47.71;99174.47;2071257;28;1865;-81
2024/02/07 01:03:33;;;;;;;;;;;;;;;18.92;47.75;99172.38;2068847;28;1672;-81
2024/02/07 01:04:36;;;;;;;;;;;;;;;18.92;47.72;99168.75;2070287;28;2042;-80
2024/02/07 01:05:37;;;;;;;;;;;;;;;18.92;47.65;99194.56;2069727;28;1649;-80
2024/02/07 01:06:39;;;;;;;;;;;;;;;18.93;47.76;99210.38;2067922;28;2430;-80
2024/02/07 01:07:40;;;;;;;;;;;;;;;18.92;47.72;99191.69;2074981;28;1681;-80
2024/02/07 01:08:43;;;;;;;;;;;;;;;18.92;47.65;99157.28;2069053;28;1668;-80
2024/02/07 01:09:44;;;;;;;;;;;;;;;18.92;47.71;99214.63;2070039;28;2235;-80
2024/02/07 01:10:46;;;;;;;;;;;;;;;18.92;47.73;99246.19;2071063;28;1716;-80
2024/02/07 01:11:48;;;;;;;;;;;;;;;18.92;47.70;99249.06;2067457;28;1693;-79
2024/02/07 01:12:50;;;;;;;;;;;;;;;18.93;47.74;99250.53;2069827;28;2129;-81
2024/02/07 01:13:51;;;;;;;;;;;;;;;18.92;47.72;99261.28;2068307;28;1700;-80
2024/02/07 01:14:53;;;;;;;;;;;;;;;18.92;47.73;99283.47;2067116;28;1744;-80
2024/02/07 01:15:55;;;;;;;;;;;;;;;18.90;47.78;99275.56;2068740;28;2168;-80
2024/02/07 01:16:56;;;;;;;;;;;;;;;18.91;47.75;99273.41;2067790;28;1926;-79
2024/02/07 01:17:58;;;;;;;;;;;;;;;18.91;47.71;99288.47;2068903;28;1914;-80
2024/02/07 01:18:59;;;;;;;;;;;;;;;18.90;47.73;99283.41;2070294;28;1621;-80
2024/02/07 01:20:02;;;;;;;;;;;;;;;18.90;47.75;99295.63;2070393;28;1924;-80
2024/02/07 01:21:07;;;;;;;;;;;;;;;18.92;47.82;99300.69;2070073;28;1654;-80
2024/02/07 01:22:08;;;;;;;;;;;;;;;18.90;47.84;99280.53;2068722;28;1629;-80
2024/02/07 01:23:10;;;;;;;;;;;;;;;18.91;47.77;99270.56;2069118;28;1879;-80
2024/02/07 01:24:12;;;;;;;;;;;;;;;18.90;47.84;99274.81;2070887;28;1573;-79
2024/02/07 01:25:14;;;;;;;;;;;;;;;18.90;47.81;99269.06;2070347;28;1709;-80
2024/02/07 01:26:15;;;;;;;;;;;;;;;18.90;47.75;99289.16;2067974;28;1664;-80
2024/02/07 01:27:17;;;;;;;;;;;;;;;18.89;47.85;99290.56;2068604;28;2042;-79
2024/02/07 01:28:19;;;;;;;;;;;;;;;18.89;47.82;99302.03;2068297;28;2180;-80
2024/02/07 01:29:21;;;;;;;;;;;;;;;18.89;47.75;99293.44;2067924;28;2010;-80
2024/02/07 01:30:23;;;;;;;;;;;;;;;18.90;47.78;99301.38;2070360;28;2212;-80
2024/02/07 01:31:24;;;;;;;;;;;;;;;18.89;47.71;99299.16;2070159;28;1638;-80
2024/02/07 01:32:25;;;;;;;;;;;;;;;18.89;47.79;99302.03;2070922;28;1815;-80
2024/02/07 01:33:27;;;;;;;;;;;;;;;18.89;47.77;99307.78;2070348;28;1931;-79
2024/02/07 01:34:28;;;;;;;;;;;;;;;18.88;47.69;99295.56;2070971;28;1697;-80
2024/02/07 01:35:33;;;;;;;;;;;;;;;18.88;47.73;99309.19;2065845;28;1796;-80
2024/02/07 01:36:42;;;;;;;;;;;;;;;18.88;47.73;99317.78;2069929;28;1734;-79
2024/02/07 01:37:43;;;;;;;;;;;;;;;18.88;47.71;99318.53;2070034;28;2242;-79
2024/02/07 01:38:45;;;;;;;;;;;;;;;18.89;47.77;99322.13;2070851;28;1765;-80
2024/02/07 01:39:46;;;;;;;;;;;;;;;18.89;47.70;99310.66;2069581;28;1985;-79
2024/02/07 01:40:48;;;;;;;;;;;;;;;18.88;47.68;99332.88;2068496;28;1955;-80
2024/02/07 01:41:59;;;;;;;;;;;;;;;18.88;47.68;99323.53;2064941;28;2235;-79
2024/02/07 01:43:03;;;;;;;;;;;;;;;18.88;47.70;99323.53;2068515;28;2030;-80
2024/02/07 01:44:04;;;;;;;;;;;;;;;18.87;47.70;99333.53;2067823;28;2098;-80
2024/02/07 01:45:30;;;;;;;;;;;;;;;18.87;47.69;99334.25;2068806;28;1936;-80
2024/02/07 01:46:32;;;;;;;;;;;;;;;18.87;47.77;99337.13;2069189;28;1690;-80
2024/02/07 01:47:34;;;;;;;;;;;;;;;18.86;47.77;99344.28;2069465;28;1732;-80
2024/02/07 01:48:35;;;;;;;;;;;;;;;18.87;47.76;99330.66;2070258;28;2331;-80
2024/02/07 01:49:38;;;;;;;;;;;;;;;18.86;47.68;99346.41;2069912;28;2137;-80
2024/02/07 01:50:40;;;;;;;;;;;;;;;18.85;47.54;99348.53;2066512;28;2164;-81
2024/02/07 01:51:42;;;;;;;;;;;;;;;18.86;47.69;99355.03;2069760;28;1745;-79
2024/02/07 01:52:45;;;;;;;;;;;;;;;18.84;47.62;99350.69;2070130;28;2319;-79
2024/02/07 01:53:47;;;;;;;;;;;;;;;18.84;47.58;99352.81;2068915;28;1733;-79
2024/02/07 01:54:49;;;;;;;;;;;;;;;18.84;47.56;99352.81;2070150;28;1955;-79
2024/02/07 01:55:51;;;;;;;;;;;;;;;18.84;47.58;99347.81;2069251;28;1999;-80
2024/02/07 01:56:53;;;;;;;;;;;;;;;18.83;47.49;99340.63;2069888;28;1800;-80
2024/02/07 01:58:00;;;;;;;;;;;;;;;18.83;47.55;99352.09;2067964;28;2204;-79
2024/02/07 01:59:04;;;;;;;;;;;;;;;18.83;47.50;99346.34;2068140;28;1744;-80
2024/02/07 02:00:07;;;;;;;;;;;;;;;18.82;47.45;99347.75;2068869;28;2208;-80
2024/02/07 02:01:09;;;;;;;;;;;;;;;18.82;47.50;99344.16;2068663;28;1822;-80
2024/02/07 02:02:11;;;;;;;;;;;;;;;18.82;47.45;99344.16;2068111;28;1769;-80
2024/02/07 02:03:13;;;;;;;;;;;;;;;18.81;47.50;99342.69;2071044;28;1760;-80
2024/02/07 02:04:14;;;;;;;;;;;;;;;18.83;47.37;99349.22;2065934;28;2242;-80
2024/02/07 02:05:16;;;;;;;;;;;;;;;18.84;47.37;99342.06;2067760;28;2102;-79
2024/02/07 02:06:17;;;;;;;;;;;;;;;18.83;47.42;99343.50;2069124;28;1709;-79
2024/02/07 02:07:19;;;;;;;;;;;;;;;18.83;47.37;99340.63;2070815;28;1972;-80
2024/02/07 02:08:20;;;;;;;;;;;;;;;18.84;47.47;99347.81;2067687;28;1795;-80
2024/02/07 02:09:22;;;;;;;;;;;;;;;18.86;47.34;99349.28;2067570;28;2152;-80
2024/02/07 02:10:23;;;;;;;;;;;;;;;18.87;47.26;99347.88;2070519;28;2107;-79
2024/02/07 02:11:31;;;;;;;;;;;;;;;18.87;47.33;99351.47;2071144;28;2189;-80
2024/02/07 02:12:33;;;;;;;;;;;;;;;18.87;47.19;99345.72;2069289;28;1721;-80
2024/02/07 02:13:34;;;;;;;;;;;;;;;18.88;47.20;99346.47;2071962;28;2015;-81
2024/02/07 02:14:36;;;;;;;;;;;;;;;18.88;47.13;99346.47;2068774;28;2625;-80
2024/02/07 02:15:37;;;;;;;;;;;;;;;18.88;47.24;99340.75;2070183;28;2229;-67
2024/02/07 02:16:39;;;;;;;;;;;;;;;18.89;47.08;99337.19;2070101;28;2003;-66
2024/02/07 02:17:41;;;;;;;;;;;;;;;18.90;47.23;99338.66;2070274;28;2208;-84
2024/02/07 02:18:43;;;;;;;;;;;;;;;18.91;47.19;99339.38;2072399;28;2104;-67
2024/02/07 02:19:45;;;;;;;;;;;;;;;18.91;47.12;99339.38;2069877;28;1733;-64
2024/02/07 02:20:47;;;;;;;;;;;;;;;18.91;47.22;99339.38;2071039;28;1931;-64
2024/02/07 02:22:05;;;;;;;;;;;;;;;18.91;47.22;99340.09;2069206;28;2254;-64
2024/02/07 02:23:17;;;;;;;;;;;;;;;18.93;47.12;99336.56;2068104;28;2334;-64
2024/02/07 02:24:45;;;;;;;;;;;;;;;18.93;47.12;99342.31;2070365;28;2244;-64
2024/02/07 02:25:55;;;;;;;;;;;;;;;18.93;47.20;99336.56;2072099;28;2379;-64
2024/02/07 02:27:19;;;;;;;;;;;;;;;18.93;47.11;99337.31;2068334;28;1954;-63
2024/02/07 02:28:36;;;;;;;;;;;;;;;18.93;47.10;99330.84;2065311;28;2232;-64
2024/02/07 02:29:42;;;;;;;;;;;;;;;18.93;47.11;99339.44;2066736;28;1671;-64
2024/02/07 02:30:50;;;;;;;;;;;;;;;18.93;47.16;99336.56;2064902;28;2128;-64
2024/02/07 02:31:55;;;;;;;;;;;;;;;18.92;47.06;99335.09;2068175;28;1745;-64
2024/02/07 02:32:58;;;;;;;;;;;;;;;18.93;47.18;99345.19;2070165;28;1676;-64
2024/02/07 02:34:00;;;;;;;;;;;;;;;18.93;47.15;99342.31;2068965;28;2192;-64
2024/02/07 02:35:02;;;;;;;;;;;;;;;18.93;47.13;99348.03;2067843;28;1944;-64
2024/02/07 02:36:04;;;;;;;;;;;;;;;18.94;47.10;99338.03;2068486;28;2578;-64
2024/02/07 02:37:06;;;;;;;;;;;;;;;18.92;47.21;99346.56;2071813;28;1664;-64
2024/02/07 02:38:07;;;;;;;;;;;;;;;18.92;47.22;99352.31;2070343;28;1977;-64
2024/02/07 02:39:09;;;;;;;;;;;;;;;18.91;47.12;99336.50;2068816;28;2070;-64
2024/02/07 02:40:10;;;;;;;;;;;;;;;18.92;47.15;99344.44;2071064;28;1764;-64
2024/02/07 02:41:14;;;;;;;;;;;;;;;18.92;47.11;99343.69;2069371;28;2187;-64
2024/02/07 02:42:16;;;;;;;;;;;;;;;18.91;47.19;99339.38;2069975;28;2172;-64
2024/02/07 02:43:17;;;;;;;;;;;;;;;18.91;47.28;99339.38;2068807;28;1653;-64
2024/02/07 02:44:19;;;;;;;;;;;;;;;18.90;47.20;99344.41;2070082;28;2187;-64
2024/02/07 02:45:20;;;;;;;;;;;;;;;18.91;47.16;99345.13;2068780;28;2173;-63
2024/02/07 02:46:22;;;;;;;;;;;;;;;18.91;47.15;99342.25;2067115;28;1851;-64
2024/02/07 02:47:23;;;;;;;;;;;;;;;18.90;47.20;99332.91;2070844;28;1926;-64
2024/02/07 02:48:24;;;;;;;;;;;;;;;18.90;47.25;99323.56;2066613;28;2199;-64
2024/02/07 02:49:26;;;;;;;;;;;;;;;18.89;47.15;99331.44;2070150;28;1664;-64
2024/02/07 02:50:28;;;;;;;;;;;;;;;18.90;47.24;99335.03;2068017;28;1853;-64
2024/02/07 02:51:31;;;;;;;;;;;;;;;18.89;47.25;99342.91;2070527;28;1669;-63
2024/02/07 02:52:33;;;;;;;;;;;;;;;18.89;47.32;99337.19;2068049;28;1578;-64
2024/02/07 02:53:35;;;;;;;;;;;;;;;18.90;47.20;99343.66;2069145;28;1641;-64
2024/02/07 02:54:36;;;;;;;;;;;;;;;18.89;47.27;99345.06;2068879;28;2173;-64
2024/02/07 02:55:38;;;;;;;;;;;;;;;18.89;47.28;99347.94;2069439;28;2070;-64
2024/02/07 02:56:40;;;;;;;;;;;;;;;18.90;47.20;99349.38;2068695;28;1641;-64
2024/02/07 02:57:42;;;;;;;;;;;;;;;18.90;47.21;99350.13;2067950;28;1634;-64
2024/02/07 02:58:44;;;;;;;;;;;;;;;18.91;47.28;99348.00;2067163;28;2052;-64
2024/02/07 02:59:48;;;;;;;;;;;;;;;18.91;47.17;99353.72;2072413;28;2223;-64
2024/02/07 03:00:50;;;;;;;;;;;;;;;18.91;47.13;99353.72;2069501;28;2409;-64
2024/02/07 03:01:51;;;;;;;;;;;;;;;18.90;47.24;99355.88;2067236;28;2215;-63
2024/02/07 03:02:56;;;;;;;;;;;;;;;18.93;47.10;99353.78;2070735;28;2230;-64
2024/02/07 03:03:57;;;;;;;;;;;;;;;18.92;47.23;99350.19;2071010;28;1660;-63
2024/02/07 03:05:02;;;;;;;;;;;;;;;18.92;47.18;99352.31;2069069;28;2303;-64
2024/02/07 03:06:07;;;;;;;;;;;;;;;18.92;47.15;99350.19;2066309;28;1652;-64
2024/02/07 03:08:39;;;;;;;;;;;;;;;18.94;47.16;99361.69;2066489;28;2248;-64
2024/02/07 03:09:48;;;;;;;;;;;;;;;18.94;47.10;99360.97;2068944;28;2238;-64
2024/02/07 03:10:50;;;;;;;;;;;;;;;18.95;47.15;99362.44;2070501;28;2204;-64
2024/02/07 03:11:52;;;;;;;;;;;;;;;18.94;47.16;99360.97;2069991;28;1934;-64
2024/02/07 03:12:53;;;;;;;;;;;;;;;18.95;47.12;99373.91;2068072;28;2001;-64
2024/02/07 03:13:54;;;;;;;;;;;;;;;18.95;47.12;99368.19;2071996;28;1684;-64
2024/02/07 03:14:56;;;;;;;;;;;;;;;18.94;47.17;99369.56;2069810;28;2188;-64
2024/02/07 03:15:57;;;;;;;;;;;;;;;18.94;47.19;99366.72;2071050;28;1922;-64
2024/02/07 03:16:59;;;;;;;;;;;;;;;18.93;47.16;99371.72;2069868;28;1926;-65
2024/02/07 03:18:01;;;;;;;;;;;;;;;18.93;47.20;99376.72;2069434;28;1701;-63
2024/02/07 03:19:03;;;;;;;;;;;;;;;18.92;47.31;99381.00;2067039;28;1946;-64
2024/02/07 03:20:05;;;;;;;;;;;;;;;18.93;47.06;99376.72;2066643;28;1875;-64
2024/02/07 03:21:08;;;;;;;;;;;;;;;18.92;47.16;99372.38;2066672;28;2358;-64
2024/02/07 03:22:09;;;;;;;;;;;;;;;18.92;47.20;99369.50;2067934;28;1680;-64
2024/02/07 03:23:11;;;;;;;;;;;;;;;18.91;47.21;99380.25;2067475;28;2220;-64
2024/02/07 03:24:13;;;;;;;;;;;;;;;18.91;47.29;99373.78;2068238;28;2349;-64
2024/02/07 03:25:17;;;;;;;;;;;;;;;18.90;47.31;99370.22;2069714;28;2318;-63
2024/02/07 03:26:19;;;;;;;;;;;;;;;18.90;47.25;99378.06;2067876;28;1859;-64
2024/02/07 03:27:20;;;;;;;;;;;;;;;18.90;47.23;99384.53;2069276;28;1784;-64
2024/02/07 03:28:21;;;;;;;;;;;;;;;18.89;47.27;99383.06;2064439;28;1924;-64
2024/02/07 03:29:25;;;;;;;;;;;;;;;18.90;47.23;99389.53;2071020;28;1859;-64
2024/02/07 03:30:26;;;;;;;;;;;;;;;18.90;47.27;99386.66;2069256;28;2106;-64
2024/02/07 03:31:28;;;;;;;;;;;;;;;18.89;47.32;99382.34;2071690;28;1633;-64
2024/02/07 03:32:29;;;;;;;;;;;;;;;18.89;47.26;99393.81;2067120;28;2010;-63
2024/02/07 03:33:30;;;;;;;;;;;;;;;18.88;47.33;99389.50;2067114;28;1716;-63
2024/02/07 03:34:32;;;;;;;;;;;;;;;18.89;47.31;99393.81;2068630;28;2202;-64
2024/02/07 03:35:34;;;;;;;;;;;;;;;18.89;47.20;99388.06;2070243;28;1881;-64
2024/02/07 03:36:35;;;;;;;;;;;;;;;18.89;47.21;99385.22;2067745;28;1605;-64
2024/02/07 03:37:38;;;;;;;;;;;;;;;18.88;47.10;99378.75;2069857;28;1632;-64
2024/02/07 03:38:40;;;;;;;;;;;;;;;18.90;47.33;99383.78;2067684;28;1992;-64
2024/02/07 03:39:42;;;;;;;;;;;;;;;18.91;47.10;99385.28;2069530;28;1640;-64
2024/02/07 03:40:45;;;;;;;;;;;;;;;18.91;46.95;99385.28;2069120;28;2078;-64
2024/02/07 03:41:46;;;;;;;;;;;;;;;18.92;46.94;99381.00;2069005;28;1928;-64
2024/02/07 03:42:48;;;;;;;;;;;;;;;18.93;46.97;99388.94;2068235;28;1652;-64
2024/02/07 03:43:49;;;;;;;;;;;;;;;18.94;46.94;99389.66;2070516;28;1645;-64
2024/02/07 03:44:56;;;;;;;;;;;;;;;18.94;46.99;99383.91;2068720;28;2121;-64
2024/02/07 03:45:58;;;;;;;;;;;;;;;18.94;46.93;99375.31;2070335;28;2106;-64
2024/02/07 03:46:59;;;;;;;;;;;;;;;18.96;46.87;99386.84;2070476;28;1665;-64
2024/02/07 03:48:01;;;;;;;;;;;;;;;18.96;46.89;99381.09;2068269;28;2134;-64
2024/02/07 03:49:03;;;;;;;;;;;;;;;18.95;46.94;99368.91;2069304;28;2509;-64
2024/02/07 03:50:05;;;;;;;;;;;;;;;18.97;46.93;99377.56;2066674;28;1863;-64
2024/02/07 03:51:08;;;;;;;;;;;;;;;18.98;46.96;99384.75;2068722;28;1848;-64
2024/02/07 03:52:09;;;;;;;;;;;;;;;18.98;46.89;99384.03;2069531;28;1697;-64
2024/02/07 03:53:11;;;;;;;;;;;;;;;18.99;46.94;99379.78;2067633;28;1907;-63
2024/02/07 03:54:12;;;;;;;;;;;;;;;18.99;46.95;99374.03;2067273;28;2438;-65
2024/02/07 03:55:14;;;;;;;;;;;;;;;18.99;46.94;99379.78;2066311;28;2078;-64
2024/02/07 03:56:16;;;;;;;;;;;;;;;18.99;47.11;99376.91;2071470;28;1589;-64
2024/02/07 03:57:20;;;;;;;;;;;;;;;18.99;47.10;99368.31;2069264;28;1945;-64
2024/02/07 03:58:24;;;;;;;;;;;;;;;18.99;47.14;99379.78;2066685;28;1946;-64
2024/02/07 03:59:26;;;;;;;;;;;;;;;18.98;47.15;99378.31;2068943;28;2368;-63
2024/02/07 04:00:27;;;;;;;;;;;;;;;18.99;47.17;99385.53;2067600;28;2085;-63
2024/02/07 04:01:29;;;;;;;;;;;;;;;18.99;47.10;99391.25;2069625;28;2038;-64
2024/02/07 04:02:32;;;;;;;;;;;;;;;18.98;47.03;99386.91;2066600;28;1669;-64
2024/02/07 04:03:33;;;;;;;;;;;;;;;18.98;47.06;99386.91;2065974;28;1684;-64
2024/02/07 04:04:35;;;;;;;;;;;;;;;18.98;47.03;99389.78;2067790;28;2043;-63
2024/02/07 04:05:37;;;;;;;;;;;;;;;18.98;47.03;99399.09;2070932;28;2041;-64
2024/02/07 04:06:39;;;;;;;;;;;;;;;18.98;47.01;99392.63;2069414;28;1673;-64
2024/02/07 04:07:41;;;;;;;;;;;;;;;18.99;47.00;99397.00;2067185;28;1711;-64
2024/02/07 04:08:43;;;;;;;;;;;;;;;18.99;47.02;99402.72;2067763;28;2320;-64
2024/02/07 04:09:45;;;;;;;;;;;;;;;19.00;47.08;99398.44;2070528;28;2243;-64
2024/02/07 04:10:51;;;;;;;;;;;;;;;19.00;47.01;99404.19;2067392;28;1847;-64
2024/02/07 05:16:01;;;;;;;;;;;;;;;18.91;46.43;99411.09;2067221;28;2189;-69
2024/02/07 05:17:02;;;;;;;;;;;;;;;18.96;46.45;99398.31;2062111;28;2309;-64
2024/02/07 05:18:04;;;;;;;;;;;;;;;18.99;47.06;99394.13;2069425;28;2064;-64
2024/02/07 05:19:05;;;;;;;;;;;;;;;19.03;46.97;99391.34;2064601;28;2000;-62
2024/02/07 05:20:07;;;;;;;;;;;;;;;19.11;46.90;99391.59;2065883;28;2254;-62
2024/02/07 05:21:10;;;;;;;;;;;;;;;19.16;46.83;99381.69;2065913;28;2243;-63
2024/02/07 05:22:12;;;;;;;;;;;;;;;19.14;46.83;99395.25;2064553;28;2313;-63
2024/02/07 05:23:13;;;;;;;;;;;;;;;18.93;45.75;99382.47;2068294;28;2094;-63
2024/02/07 05:24:16;;;;;;;;;;;;;;;18.33;44.79;99383.53;2068297;28;1964;-62
2024/02/07 05:25:17;;;;;;;;;;;;;;;18.33;44.89;99389.28;2068210;28;2109;-62
2024/02/07 05:26:19;;;;;;;;;;;;;;;18.44;44.59;99376.00;2065714;28;1936;-62
2024/02/07 05:27:20;;;;;;;;;;;;;;;18.56;44.37;99387.09;2069343;28;1804;-62
2024/02/07 05:28:22;;;;;;;;;;;;;;;18.65;44.90;99380.19;2065934;28;1713;-62
2024/02/07 05:29:24;;;;;;;;;;;;;;;18.75;45.22;99377.63;2066489;28;1653;-62
2024/02/07 05:30:25;;;;;;;;;;;;;;;18.81;45.28;99389.31;2067946;28;1917;-62
2024/02/07 05:31:28;;;;;;;;;;;;;;;18.88;45.28;99386.63;2066031;28;1968;-62
2024/02/07 05:32:29;;;;;;;;;;;;;;;18.92;45.67;99386.72;2068933;28;1976;-62
2024/02/07 05:33:31;;;;;;;;;;;;;;;18.95;45.60;99391.13;2067345;28;1898;-62
2024/02/07 05:34:34;;;;;;;;;;;;;;;18.97;45.66;99388.31;2066972;28;1952;-63
2024/02/07 05:35:35;;;;;;;;;;;;;;;18.99;45.72;99386.25;2067202;28;1905;-62
2024/02/07 05:36:37;;;;;;;;;;;;;;;19.00;45.66;99386.97;2067262;28;1913;-62
2024/02/07 05:37:38;;;;;;;;;;;;;;;19.02;45.76;99384.16;2066230;28;2317;-63
2024/02/07 05:38:40;;;;;;;;;;;;;;;19.02;45.82;99384.16;2065980;28;2007;-62
2024/02/07 05:39:41;;;;;;;;;;;;;;;19.04;45.98;99387.09;2069068;28;2059;-62
2024/02/07 05:40:43;;;;;;;;;;;;;;;19.05;46.03;99388.53;2067417;28;1766;-63
2024/02/07 05:41:45;;;;;;;;;;;;;;;19.07;46.09;99382.13;2066175;28;1708;-62
2024/02/07 05:42:47;;;;;;;;;;;;;;;19.08;46.27;99392.19;2069382;28;1665;-63
2024/02/07 05:43:48;;;;;;;;;;;;;;;19.08;46.24;99395.81;2069371;28;1804;-63
2024/02/07 05:44:50;;;;;;;;;;;;;;;19.08;46.25;99398.69;2070267;28;1688;-63
2024/02/07 05:45:51;;;;;;;;;;;;;;;19.09;46.30;99394.41;2068578;28;1649;-62
2024/02/07 05:46:53;;;;;;;;;;;;;;;19.09;46.31;99400.13;2069138;28;1919;-62
2024/02/07 05:47:55;;;;;;;;;;;;;;;19.10;46.48;99395.13;2068561;28;1833;-62
2024/02/07 05:48:56;;;;;;;;;;;;;;;19.10;46.43;99398.72;2067082;28;1753;-63
2024/02/07 05:49:58;;;;;;;;;;;;;;;19.11;46.40;99396.59;2068865;28;1641;-62
2024/02/07 05:50:59;;;;;;;;;;;;;;;19.09;46.41;99405.88;2067321;28;1956;-63
2024/02/07 05:52:01;;;;;;;;;;;;;;;19.10;46.46;99407.31;2070311;28;1681;-63
2024/02/07 05:53:03;;;;;;;;;;;;;;;19.10;46.55;99404.44;2069598;28;1661;-63
2024/02/07 05:54:05;;;;;;;;;;;;;;;19.10;46.64;99407.31;2068365;28;1720;-63
2024/02/07 05:55:07;;;;;;;;;;;;;;;19.10;46.60;99403.72;2070109;28;1945;-63
2024/02/07 05:56:08;;;;;;;;;;;;;;;19.09;46.71;99405.88;2068686;28;1851;-63
2024/02/07 05:57:11;;;;;;;;;;;;;;;19.08;46.68;99410.16;2067618;28;2164;-63
2024/02/07 05:58:12;;;;;;;;;;;;;;;19.08;46.60;99415.91;2067671;28;1859;-63
2024/02/07 05:59:14;;;;;;;;;;;;;;;19.10;46.59;99415.94;2068260;28;1732;-63
2024/02/07 06:00:16;;;;;;;;;;;;;;;19.09;46.63;99423.09;2069359;28;1988;-63
2024/02/07 06:01:17;;;;;;;;;;;;;;;19.09;46.62;99422.38;2068561;28;1987;-63
2024/02/07 06:02:19;;;;;;;;;;;;;;;19.09;46.56;99428.09;2070876;28;1609;-62
2024/02/07 06:03:21;;;;;;;;;;;;;;;19.09;46.57;99411.59;2071925;28;1694;-63
2024/02/07 06:04:22;;;;;;;;;;;;;;;19.09;46.65;99417.34;2070857;28;1883;-63
2024/02/07 06:05:23;;;;;;;;;;;;;;;19.09;46.82;99405.16;2069625;28;1893;-63
2024/02/07 06:06:29;;;;;;;;;;;;;;;19.10;46.72;99420.94;2070008;28;1737;-63
2024/02/07 06:07:34;;;;;;;;;;;;;;;19.10;46.73;99412.34;2068468;28;2023;-63
2024/02/07 06:08:35;;;;;;;;;;;;;;;19.09;46.71;99411.59;2068184;28;1634;-63
2024/02/07 06:09:37;;;;;;;;;;;;;;;19.09;46.63;99410.88;2071915;28;2095;-63
2024/02/07 06:10:44;;;;;;;;;;;;;;;19.09;46.59;99400.13;2068064;28;1875;-63
2024/02/07 06:11:45;;;;;;;;;;;;;;;19.09;46.66;99400.13;2070844;28;1728;-63
2024/02/07 06:12:47;;;;;;;;;;;;;;;19.10;46.82;99413.06;2070290;28;2069;-63
2024/02/07 06:13:48;;;;;;;;;;;;;;;19.11;46.64;99408.81;2069686;28;1616;-63
2024/02/07 06:14:49;;;;;;;;;;;;;;;19.11;46.74;99405.94;2077433;28;1660;-63
2024/02/07 06:15:51;;;;;;;;;;;;;;;19.12;46.78;99413.13;2078664;28;1624;-63
2024/02/07 06:16:52;;;;;;;;;;;;;;;19.12;46.79;99427.47;2069399;28;1664;-63
2024/02/07 06:17:53;;;;;;;;;;;;;;;19.12;46.79;99413.13;2069410;28;1884;-63
2024/02/07 06:18:55;;;;;;;;;;;;;;;19.13;46.83;99419.63;2068428;28;1641;-63
2024/02/07 06:19:56;;;;;;;;;;;;;;;19.14;46.78;99421.06;2067483;28;1616;-63
2024/02/07 06:20:58;;;;;;;;;;;;;;;19.13;46.81;99411.72;2067916;28;1910;-64
2024/02/07 06:22:00;;;;;;;;;;;;;;;19.13;46.70;99411.72;2071452;28;2084;-63
2024/02/07 06:23:01;;;;;;;;;;;;;;;19.13;46.89;99405.28;2067730;28;1625;-63
2024/02/07 06:24:02;;;;;;;;;;;;;;;19.13;46.93;99426.06;2069248;28;1648;-63
2024/02/07 06:25:04;;;;;;;;;;;;;;;19.13;46.82;99422.47;2067595;28;2015;-63
2024/02/07 06:26:05;;;;;;;;;;;;;;;19.13;46.83;99417.47;2069205;28;1691;-63
2024/02/07 06:27:07;;;;;;;;;;;;;;;19.13;46.78;99417.47;2068646;28;2035;-64
2024/02/07 06:28:08;;;;;;;;;;;;;;;19.13;46.86;99417.47;2069087;28;1744;-62
2024/02/07 06:29:10;;;;;;;;;;;;;;;19.12;46.86;99427.47;2072218;28;1989;-63
2024/02/07 06:30:12;;;;;;;;;;;;;;;19.13;46.92;99425.34;2070003;28;1970;-63
2024/02/07 06:31:13;;;;;;;;;;;;;;;19.11;46.94;99420.28;2069891;28;1972;-63
2024/02/07 06:32:15;;;;;;;;;;;;;;;19.11;46.95;99417.41;2067709;28;2267;-63
2024/02/07 06:33:16;;;;;;;;;;;;;;;19.12;46.79;99415.25;2069951;28;1772;-63
2024/02/07 06:34:17;;;;;;;;;;;;;;;19.11;46.86;99417.41;2071642;28;1843;-63
2024/02/07 06:35:19;;;;;;;;;;;;;;;19.11;46.88;99417.41;2068678;28;2189;-63